sensor_id;sensor_type;location;lat;lon;timestamp;pressure;altitude;pressure_sealevel;temperature;humidity
57799;BME280;43626;53.866;30.298;2023-02-12T00:01:39;1025.2;;;-1.5;57.4
57799;BME280;43626;53.866;30.298;2023-02-12T00:07:03;1025.4;;;-1.5;56.9
57799;BME280;43626;53.866;30.298;2023-02-12T00:12:03;1025.5;;;-1.5;56.3
57799;BME280;43626;53.866;30.298;2023-02-12T00:16:39;1025.6;;;-1.6;55.3
57799;BME280;43626;53.866;30.298;2023-02-12T00:22:03;1025.8;;;-1.6;54.9
57799;BME280;43626;53.866;30.298;2023-02-12T00:27:01;1025.9;;;-1.7;54.1
57799;BME280;43626;53.866;30.298;2023-02-12T00:31:13;1026;;;-1.8;53.8
57799;BME280;43626;53.866;30.298;2023-02-12T00:36:35;1026.1;;;-1.8;53.7
57799;BME280;43626;53.866;30.298;2023-02-12T00:41:47;1026.2;;;-1.8;53.7
57799;BME280;43626;53.866;30.298;2023-02-12T00:46:39;1026.4;;;-1.7;54.3
57799;BME280;43626;53.866;30.298;2023-02-12T00:51:51;1026.6;;;-1.6;54.3
57799;BME280;43626;53.866;30.298;2023-02-12T00:56:37;1026.7;;;-1.6;54.6
57799;BME280;43626;53.866;30.298;2023-02-12T01:01:59;1026.8;;;-1.6;54.5
57799;BME280;43626;53.866;30.298;2023-02-12T01:06:49;1026.9;;;-1.7;54.5
57799;BME280;43626;53.866;30.298;2023-02-12T01:11:25;1027;;;-1.7;54.8
57799;BME280;43626;53.866;30.298;2023-02-12T01:16:13;1027.1;;;-1.7;55.2
57799;BME280;43626;53.866;30.298;2023-02-12T01:21:33;1027.2;;;-1.6;55.5
57799;BME280;43626;53.866;30.298;2023-02-12T01:26:27;1027.3;;;-1.6;55.6
57799;BME280;43626;53.866;30.298;2023-02-12T01:31:14;1027.4;;;-1.6;55.4
57799;BME280;43626;53.866;30.298;2023-02-12T01:36:13;1027.5;;;-1.6;55.3
57799;BME280;43626;53.866;30.298;2023-02-12T01:41:40;1027.5;;;-1.7;55.3
57799;BME280;43626;53.866;30.298;2023-02-12T01:47:01;1027.6;;;-1.7;54.6
57799;BME280;43626;53.866;30.298;2023-02-12T01:51:29;1027.6;;;-1.8;54
57799;BME280;43626;53.866;30.298;2023-02-12T01:57:03;1027.8;;;-1.8;54.3
57799;BME280;43626;53.866;30.298;2023-02-12T02:01:37;1027.9;;;-1.8;54.8
57799;BME280;43626;53.866;30.298;2023-02-12T02:06:49;1028;;;-1.8;54.7
57799;BME280;43626;53.866;30.298;2023-02-12T02:11:27;1028;;;-1.9;54.3
57799;BME280;43626;53.866;30.298;2023-02-12T02:16:18;1028.1;;;-1.9;54.5
57799;BME280;43626;53.866;30.298;2023-02-12T02:22:13;1028.1;;;-1.9;54.8
57799;BME280;43626;53.866;30.298;2023-02-12T02:27:07;1028.2;;;-1.9;55.2
57799;BME280;43626;53.866;30.298;2023-02-12T02:31:51;1028.4;;;-2;55.4
57799;BME280;43626;53.866;30.298;2023-02-12T02:37:03;1028.4;;;-2;55.2
57799;BME280;43626;53.866;30.298;2023-02-12T02:42:02;1028.5;;;-2.1;55
57799;BME280;43626;53.866;30.298;2023-02-12T02:46:47;1028.6;;;-2.2;55
57799;BME280;43626;53.866;30.298;2023-02-12T02:51:50;1028.8;;;-2.3;54.8
57799;BME280;43626;53.866;30.298;2023-02-12T02:56:13;1028.8;;;-2.3;54.9
57799;BME280;43626;53.866;30.298;2023-02-12T03:01:46;1028.9;;;-2.3;55
57799;BME280;43626;53.866;30.298;2023-02-12T03:06:14;1029;;;-2.3;55
57799;BME280;43626;53.866;30.298;2023-02-12T03:11:51;1029.1;;;-2.3;55.1
57799;BME280;43626;53.866;30.298;2023-02-12T03:16:14;1029.2;;;-2.4;55.1
57799;BME280;43626;53.866;30.298;2023-02-12T03:22:03;1029.2;;;-2.4;55.4
57799;BME280;43626;53.866;30.298;2023-02-12T03:26:53;1029.3;;;-2.4;55.5
57799;BME280;43626;53.866;30.298;2023-02-12T03:32:08;1029.5;;;-2.5;55.6
57799;BME280;43626;53.866;30.298;2023-02-12T03:37:01;1029.7;;;-2.5;55.8
57799;BME280;43626;53.866;30.298;2023-02-12T03:41:53;1029.8;;;-2.5;56.3
57799;BME280;43626;53.866;30.298;2023-02-12T03:46:51;1029.9;;;-2.4;56.5
57799;BME280;43626;53.866;30.298;2023-02-12T03:51:14;1030;;;-2.3;56.6
57799;BME280;43626;53.866;30.298;2023-02-12T03:56:50;1029.9;;;-2.3;56.6
57799;BME280;43626;53.866;30.298;2023-02-12T04:01:13;1030;;;-2.3;56.9
57799;BME280;43626;53.866;30.298;2023-02-12T04:06:49;1030;;;-2.3;57
57799;BME280;43626;53.866;30.298;2023-02-12T04:11:24;1030;;;-2.3;57.1
57799;BME280;43626;53.866;30.298;2023-02-12T04:17:04;1030.2;;;-2.3;57.3
57799;BME280;43626;53.866;30.298;2023-02-12T04:21:42;1030.3;;;-2.4;57.6
57799;BME280;43626;53.866;30.298;2023-02-12T04:27:02;1030.3;;;-2.5;57.7
57799;BME280;43626;53.866;30.298;2023-02-12T04:31:48;1030.4;;;-2.5;57.9
57799;BME280;43626;53.866;30.298;2023-02-12T04:36:49;1030.5;;;-2.5;58
57799;BME280;43626;53.866;30.298;2023-02-12T04:41:37;1030.5;;;-2.5;57.9
57799;BME280;43626;53.866;30.298;2023-02-12T04:46:23;1030.6;;;-2.5;57.9
57799;BME280;43626;53.866;30.298;2023-02-12T04:51:45;1030.6;;;-2.6;58
57799;BME280;43626;53.866;30.298;2023-02-12T04:56:13;1030.7;;;-2.7;58.1
57799;BME280;43626;53.866;30.298;2023-02-12T05:01:59;1030.7;;;-2.7;58.2
57799;BME280;43626;53.866;30.298;2023-02-12T05:06:13;1030.8;;;-2.7;58.1
57799;BME280;43626;53.866;30.298;2023-02-12T05:12:03;1030.9;;;-2.8;58.4
57799;BME280;43626;53.866;30.298;2023-02-12T05:16:39;1031;;;-2.8;58.6
57799;BME280;43626;53.866;30.298;2023-02-12T05:21:48;1031.1;;;-2.9;58.7
57799;BME280;43626;53.866;30.298;2023-02-12T05:26:51;1031.3;;;-3;58.7
57799;BME280;43626;53.866;30.298;2023-02-12T05:31:13;1031.2;;;-3.1;58.9
57799;BME280;43626;53.866;30.298;2023-02-12T05:36:22;1031.4;;;-3.1;59
57799;BME280;43626;53.866;30.298;2023-02-12T05:41:14;1031.7;;;-3.1;59
57799;BME280;43626;53.866;30.298;2023-02-12T05:47:03;1031.7;;;-3.1;58.9
57799;BME280;43626;53.866;30.298;2023-02-12T05:51:39;1031.9;;;-3.1;58.9
57799;BME280;43626;53.866;30.298;2023-02-12T05:56:24;1031.8;;;-3.1;59
57799;BME280;43626;53.866;30.298;2023-02-12T06:01:57;1031.9;;;-3.1;59
57799;BME280;43626;53.866;30.298;2023-02-12T06:06:51;1031.8;;;-3.2;59.1
57799;BME280;43626;53.866;30.298;2023-02-12T06:11:39;1031.9;;;-3.2;59.1
57799;BME280;43626;53.866;30.298;2023-02-12T06:17:03;1032.1;;;-3.3;59.1
57799;BME280;43626;53.866;30.298;2023-02-12T06:22:01;1032.2;;;-3.3;59.3
57799;BME280;43626;53.866;30.298;2023-02-12T06:26:27;1032.2;;;-3.4;59.6
57799;BME280;43626;53.866;30.298;2023-02-12T06:31:35;1032.3;;;-3.3;59.5
57799;BME280;43626;53.866;30.298;2023-02-12T06:36:13;1032.2;;;-3.3;59.3
57799;BME280;43626;53.866;30.298;2023-02-12T06:41:13;1032.3;;;-3.2;59.3
57799;BME280;43626;53.866;30.298;2023-02-12T06:46:49;1032.5;;;-3.2;59.2
57799;BME280;43626;53.866;30.298;2023-02-12T06:51:27;1032.6;;;-3.1;59
57799;BME280;43626;53.866;30.298;2023-02-12T06:57:01;1032.7;;;-3.2;59.1
57799;BME280;43626;53.866;30.298;2023-02-12T07:01:13;1032.8;;;-3.2;59
57799;BME280;43626;53.866;30.298;2023-02-12T07:06:39;1032.7;;;-3.2;59.1
57799;BME280;43626;53.866;30.298;2023-02-12T07:11:39;1032.8;;;-3.2;59.3
57799;BME280;43626;53.866;30.298;2023-02-12T07:16:39;1032.9;;;-3.1;59.3
57799;BME280;43626;53.866;30.298;2023-02-12T07:21:27;1033;;;-2.9;59
57799;BME280;43626;53.866;30.298;2023-02-12T07:26:49;1033.1;;;-2.9;58.9
57799;BME280;43626;53.866;30.298;2023-02-12T07:31:27;1033.1;;;-2.8;58.9
57799;BME280;43626;53.866;30.298;2023-02-12T07:36:14;1033.2;;;-2.8;58.9
57799;BME280;43626;53.866;30.298;2023-02-12T07:41:47;1033.2;;;-2.7;59
57799;BME280;43626;53.866;30.298;2023-02-12T07:46:38;1033.4;;;-2.6;58.8
57799;BME280;43626;53.866;30.298;2023-02-12T07:51:59;1033.4;;;-2.5;58.8
57799;BME280;43626;53.866;30.298;2023-02-12T07:56:49;1033.3;;;-2.5;58.8
57799;BME280;43626;53.866;30.298;2023-02-12T08:01:40;1033.3;;;-2.5;58.9
57799;BME280;43626;53.866;30.298;2023-02-12T08:06:14;1033.3;;;-2.4;58.8
57799;BME280;43626;53.866;30.298;2023-02-12T08:11:49;1033.4;;;-2.4;58.5
57799;BME280;43626;53.866;30.298;2023-02-12T08:16:26;1033.4;;;-2.4;58.6
57799;BME280;43626;53.866;30.298;2023-02-12T08:21:29;1033.6;;;-2.4;58.6
57799;BME280;43626;53.866;30.298;2023-02-12T08:26:29;1033.6;;;-2.4;58.6
57799;BME280;43626;53.866;30.298;2023-02-12T08:31:54;1033.7;;;-2.4;58.7
57799;BME280;43626;53.866;30.298;2023-02-12T08:37:01;1033.7;;;-2.3;58.9
57799;BME280;43626;53.866;30.298;2023-02-12T08:41:39;1033.9;;;-2.2;58.7
57799;BME280;43626;53.866;30.298;2023-02-12T08:47:01;1033.9;;;-2.1;58.5
57799;BME280;43626;53.866;30.298;2023-02-12T08:51:38;1034.1;;;-2;58.2
57799;BME280;43626;53.866;30.298;2023-02-12T08:56:49;1034.1;;;-2;57.9
57799;BME280;43626;53.866;30.298;2023-02-12T09:01:14;1034.1;;;-2;57.6
57799;BME280;43626;53.866;30.298;2023-02-12T09:06:51;1034.2;;;-2;57.1
57799;BME280;43626;53.866;30.298;2023-02-12T09:11:14;1034.1;;;-2;56.8
57799;BME280;43626;53.866;30.298;2023-02-12T09:17:01;1034.1;;;-1.8;56.8
57799;BME280;43626;53.866;30.298;2023-02-12T09:21:49;1034.1;;;-1.6;56.6
57799;BME280;43626;53.866;30.298;2023-02-12T09:27:03;1034.1;;;-1.5;56.2
57799;BME280;43626;53.866;30.298;2023-02-12T09:32:01;1034;;;-1.4;56.2
57799;BME280;43626;53.866;30.298;2023-02-12T09:36:53;1034;;;-1.3;55.7
57799;BME280;43626;53.866;30.298;2023-02-12T09:41:59;1034.1;;;-1.2;55.6
57799;BME280;43626;53.866;30.298;2023-02-12T09:46:28;1034.1;;;-1.2;55.5
57799;BME280;43626;53.866;30.298;2023-02-12T09:51:29;1034.1;;;-1.2;55.3
57799;BME280;43626;53.866;30.298;2023-02-12T09:56:16;1034.1;;;-1.1;55.1
57799;BME280;43626;53.866;30.298;2023-02-12T10:01:51;1034.2;;;-1.1;54.8
57799;BME280;43626;53.866;30.298;2023-02-12T10:06:30;1034.3;;;-1;54.1
57799;BME280;43626;53.866;30.298;2023-02-12T10:12:03;1034.3;;;-1;53.7
57799;BME280;43626;53.866;30.298;2023-02-12T10:16:29;1034.3;;;-1;53.7
57799;BME280;43626;53.866;30.298;2023-02-12T10:22:07;1034.4;;;-0.8;53.2
57799;BME280;43626;53.866;30.298;2023-02-12T10:26:53;1034.3;;;-0.7;52.7
57799;BME280;43626;53.866;30.298;2023-02-12T10:31:49;1034.4;;;-0.5;52.8
57799;BME280;43626;53.866;30.298;2023-02-12T10:36:41;1034.4;;;-0.4;53.1
57799;BME280;43626;53.866;30.298;2023-02-12T10:41:15;1034.5;;;-0.3;52.6
57799;BME280;43626;53.866;30.298;2023-02-12T10:46:49;1034.6;;;-0.2;52.6
57799;BME280;43626;53.866;30.298;2023-02-12T10:51:33;1034.6;;;-0.2;52.5
57799;BME280;43626;53.866;30.298;2023-02-12T10:56:49;1034.7;;;-0.1;52.2
57799;BME280;43626;53.866;30.298;2023-02-12T11:01:41;1034.6;;;-0.1;51.6
57799;BME280;43626;53.866;30.298;2023-02-12T11:07:02;1034.7;;;-0.2;50.5
57799;BME280;43626;53.866;30.298;2023-02-12T11:11:41;1034.6;;;-0.3;50.2
57799;BME280;43626;53.866;30.298;2023-02-12T11:16:52;1034.6;;;-0.3;49.8
57799;BME280;43626;53.866;30.298;2023-02-12T11:21:41;1034.6;;;-0.3;50
57799;BME280;43626;53.866;30.298;2023-02-12T11:26:29;1034.7;;;-0.3;49.7
57799;BME280;43626;53.866;30.298;2023-02-12T11:31:37;1034.7;;;-0.3;49.8
57799;BME280;43626;53.866;30.298;2023-02-12T11:36:17;1034.7;;;-0.3;50.1
57799;BME280;43626;53.866;30.298;2023-02-12T11:41:26;1034.8;;;-0.2;50.3
57799;BME280;43626;53.866;30.298;2023-02-12T11:46:29;1034.9;;;-0.1;49.9
57799;BME280;43626;53.866;30.298;2023-02-12T11:51:39;1034.9;;;-0.2;50
57799;BME280;43626;53.866;30.298;2023-02-12T11:56:41;1034.9;;;-0.1;50.2
57799;BME280;43626;53.866;30.298;2023-02-12T12:02:07;1035;;;0;49.4
57799;BME280;43626;53.866;30.298;2023-02-12T12:06:52;1035;;;0;49.2
57799;BME280;43626;53.866;30.298;2023-02-12T12:11:15;1035;;;0;49.1
57799;BME280;43626;53.866;30.298;2023-02-12T12:16:52;1035;;;0.1;48.4
57799;BME280;43626;53.866;30.298;2023-02-12T12:21:27;1035.1;;;0.1;48.5
57799;BME280;43626;53.866;30.298;2023-02-12T12:26:29;1035.1;;;0.1;48.4
57799;BME280;43626;53.866;30.298;2023-02-12T12:31:44;1035.3;;;0.2;48.3
57799;BME280;43626;53.866;30.298;2023-02-12T12:37:14;1035.4;;;0.2;48.3
57799;BME280;43626;53.866;30.298;2023-02-12T12:41:18;1035.3;;;0.3;48.4
57799;BME280;43626;53.866;30.298;2023-02-12T12:46:41;1035.3;;;0.4;48.4
57799;BME280;43626;53.866;30.298;2023-02-12T12:52:03;1035.3;;;0.5;48.3
57799;BME280;43626;53.866;30.298;2023-02-12T12:57:04;1035.3;;;0.6;48
57799;BME280;43626;53.866;30.298;2023-02-12T13:01:35;1035.3;;;0.5;47.1
57799;BME280;43626;53.866;30.298;2023-02-12T13:06:57;1035.4;;;0.4;46.2
57799;BME280;43626;53.866;30.298;2023-02-12T13:12:07;1035.4;;;0.2;46
57799;BME280;43626;53.866;30.298;2023-02-12T13:16:29;1035.4;;;0.1;46.5
57799;BME280;43626;53.866;30.298;2023-02-12T13:21:39;1035.4;;;0.2;47.1
57799;BME280;43626;53.866;30.298;2023-02-12T13:26:15;1035.5;;;0.2;46.9
57799;BME280;43626;53.866;30.298;2023-02-12T13:31:29;1035.5;;;0.3;46.9
57799;BME280;43626;53.866;30.298;2023-02-12T13:36:51;1035.5;;;0.3;47
57799;BME280;43626;53.866;30.298;2023-02-12T13:41:29;1035.5;;;0.4;47
57799;BME280;43626;53.866;30.298;2023-02-12T13:46:54;1035.6;;;0.3;47.1
57799;BME280;43626;53.866;30.298;2023-02-12T13:51:31;1035.7;;;0.2;47.2
57799;BME280;43626;53.866;30.298;2023-02-12T13:56:28;1035.7;;;0.1;47.3
57799;BME280;43626;53.866;30.298;2023-02-12T14:01:40;1035.8;;;0.1;46.8
57799;BME280;43626;53.866;30.298;2023-02-12T14:06:54;1035.8;;;-0.1;46.8
57799;BME280;43626;53.866;30.298;2023-02-12T14:11:29;1035.8;;;-0.1;46.7
57799;BME280;43626;53.866;30.298;2023-02-12T14:16:20;1035.8;;;-0.2;46.8
57799;BME280;43626;53.866;30.298;2023-02-12T14:21:39;1035.8;;;-0.3;47.2
57799;BME280;43626;53.866;30.298;2023-02-12T14:26:53;1036;;;-0.2;47.2
57799;BME280;43626;53.866;30.298;2023-02-12T14:32:08;1036.1;;;-0.3;47.4
57799;BME280;43626;53.866;30.298;2023-02-12T14:36:34;1036.1;;;-0.3;47.6
57799;BME280;43626;53.866;30.298;2023-02-12T14:46:42;1036.1;;;-0.3;47.7
57799;BME280;43626;53.866;30.298;2023-02-12T14:51:51;1036.2;;;-0.3;47.7
57799;BME280;43626;53.866;30.298;2023-02-12T14:56:17;1036.1;;;-0.3;47.8
57799;BME280;43626;53.866;30.298;2023-02-12T15:01:53;1036.1;;;-0.4;47.9
57799;BME280;43626;53.866;30.298;2023-02-12T15:06:27;1036;;;-0.6;48.2
57799;BME280;43626;53.866;30.298;2023-02-12T15:12:04;1036;;;-0.7;48.5
57799;BME280;43626;53.866;30.298;2023-02-12T15:16:53;1036;;;-0.7;48.7
57799;BME280;43626;53.866;30.298;2023-02-12T15:21:51;1036;;;-0.7;48.9
57799;BME280;43626;53.866;30.298;2023-02-12T15:27:03;1036.1;;;-0.7;49.1
57799;BME280;43626;53.866;30.298;2023-02-12T15:31:52;1036.1;;;-0.6;49
57799;BME280;43626;53.866;30.298;2023-02-12T15:36:43;1036;;;-0.6;49
57799;BME280;43626;53.866;30.298;2023-02-12T15:41:23;1036;;;-0.6;49.1
57799;BME280;43626;53.866;30.298;2023-02-12T15:46:23;1036;;;-0.6;49.3
57799;BME280;43626;53.866;30.298;2023-02-12T15:51:16;1036.1;;;-0.6;49.4
57799;BME280;43626;53.866;30.298;2023-02-12T15:56:53;1036.1;;;-0.6;49.3
57799;BME280;43626;53.866;30.298;2023-02-12T16:01:15;1036.2;;;-0.6;49.4
57799;BME280;43626;53.866;30.298;2023-02-12T16:07:03;1036.2;;;-0.6;49.4
57799;BME280;43626;53.866;30.298;2023-02-12T16:11:51;1036.3;;;-0.6;49.4
57799;BME280;43626;53.866;30.298;2023-02-12T16:16:59;1036.3;;;-0.6;49.5
57799;BME280;43626;53.866;30.298;2023-02-12T16:21:48;1036.3;;;-0.6;49.6
57799;BME280;43626;53.866;30.298;2023-02-12T16:26:53;1036.3;;;-0.6;49.7
57799;BME280;43626;53.866;30.298;2023-02-12T16:31:51;1036.2;;;-0.5;49.7
57799;BME280;43626;53.866;30.298;2023-02-12T16:36:44;1036.2;;;-0.5;49.5
57799;BME280;43626;53.866;30.298;2023-02-12T16:41:50;1036.1;;;-0.5;49.3
57799;BME280;43626;53.866;30.298;2023-02-12T16:46:16;1036.1;;;-0.5;49.2
57799;BME280;43626;53.866;30.298;2023-02-12T16:51:56;1036.2;;;-0.6;49
57799;BME280;43626;53.866;30.298;2023-02-12T16:56:41;1036.2;;;-0.7;49.2
57799;BME280;43626;53.866;30.298;2023-02-12T17:02:04;1036.2;;;-0.7;48.7
57799;BME280;43626;53.866;30.298;2023-02-12T17:06:49;1036;;;-0.7;48.4
57799;BME280;43626;53.866;30.298;2023-02-12T17:11:37;1036;;;-0.8;48.4
57799;BME280;43626;53.866;30.298;2023-02-12T17:16:51;1035.9;;;-0.8;48.4
57799;BME280;43626;53.866;30.298;2023-02-12T17:21:53;1035.9;;;-0.8;48.6
57799;BME280;43626;53.866;30.298;2023-02-12T17:26:39;1035.9;;;-0.9;48.8
57799;BME280;43626;53.866;30.298;2023-02-12T17:31:15;1035.9;;;-0.8;48.9
57799;BME280;43626;53.866;30.298;2023-02-12T17:36:41;1035.8;;;-0.8;48.9
57799;BME280;43626;53.866;30.298;2023-02-12T17:41:29;1035.8;;;-0.9;48.9
57799;BME280;43626;53.866;30.298;2023-02-12T17:46:49;1035.8;;;-0.9;49
57799;BME280;43626;53.866;30.298;2023-02-12T17:51:41;1035.8;;;-0.9;49
57799;BME280;43626;53.866;30.298;2023-02-12T17:56:53;1035.8;;;-1;48.9
57799;BME280;43626;53.866;30.298;2023-02-12T18:01:41;1035.7;;;-1;49.1
57799;BME280;43626;53.866;30.298;2023-02-12T18:06:51;1035.7;;;-1;49.2
57799;BME280;43626;53.866;30.298;2023-02-12T18:11:51;1035.7;;;-1;49.1
57799;BME280;43626;53.866;30.298;2023-02-12T18:16:30;1035.7;;;-0.9;49.3
57799;BME280;43626;53.866;30.298;2023-02-12T18:21:41;1035.7;;;-0.9;49.5
57799;BME280;43626;53.866;30.298;2023-02-12T18:26:25;1035.6;;;-0.9;49.7
57799;BME280;43626;53.866;30.298;2023-02-12T18:32:03;1035.6;;;-0.9;49.8
57799;BME280;43626;53.866;30.298;2023-02-12T18:36:15;1035.5;;;-1;50
57799;BME280;43626;53.866;30.298;2023-02-12T18:41:39;1035.5;;;-1;50.1
57799;BME280;43626;53.866;30.298;2023-02-12T18:47:03;1035.5;;;-1.1;50.3
57799;BME280;43626;53.866;30.298;2023-02-12T18:52:03;1035.4;;;-1.2;50.8
57799;BME280;43626;53.866;30.298;2023-02-12T18:56:25;1035.3;;;-1.2;51.2
57799;BME280;43626;53.866;30.298;2023-02-12T19:02:03;1035.4;;;-1.3;51.5
57799;BME280;43626;53.866;30.298;2023-02-12T19:06:53;1035.4;;;-1.3;51.6
57799;BME280;43626;53.866;30.298;2023-02-12T19:11:35;1035.3;;;-1.3;51.8
57799;BME280;43626;53.866;30.298;2023-02-12T19:16:16;1035.3;;;-1.3;51.7
57799;BME280;43626;53.866;30.298;2023-02-12T19:21:25;1035.4;;;-1.3;51.7
57799;BME280;43626;53.866;30.298;2023-02-12T19:26:37;1035.3;;;-1.3;51.7
57799;BME280;43626;53.866;30.298;2023-02-12T19:31:51;1035.3;;;-1.3;51.6
57799;BME280;43626;53.866;30.298;2023-02-12T19:36:16;1035.3;;;-1.3;51.7
57799;BME280;43626;53.866;30.298;2023-02-12T19:42:03;1035.3;;;-1.3;51.7
57799;BME280;43626;53.866;30.298;2023-02-12T19:46:29;1035.3;;;-1.2;51.7
57799;BME280;43626;53.866;30.298;2023-02-12T19:51:41;1035.2;;;-1.2;51.6
57799;BME280;43626;53.866;30.298;2023-02-12T19:57:03;1035.2;;;-1.2;51.6
57799;BME280;43626;53.866;30.298;2023-02-12T20:02:03;1035.2;;;-1.2;51.5
57799;BME280;43626;53.866;30.298;2023-02-12T20:06:26;1035.2;;;-1.2;51.7
57799;BME280;43626;53.866;30.298;2023-02-12T20:11:32;1035.2;;;-1.2;51.6
57799;BME280;43626;53.866;30.298;2023-02-12T20:16:26;1035.2;;;-1.2;51.6
57799;BME280;43626;53.866;30.298;2023-02-12T20:21:16;1035.1;;;-1.2;51.7
57799;BME280;43626;53.866;30.298;2023-02-12T20:26:49;1035.1;;;-1.3;51.9
57799;BME280;43626;53.866;30.298;2023-02-12T20:31:41;1035.1;;;-1.3;52.1
57799;BME280;43626;53.866;30.298;2023-02-12T20:37:01;1035;;;-1.4;52.3
57799;BME280;43626;53.866;30.298;2023-02-12T20:41:41;1034.9;;;-1.4;52.5
57799;BME280;43626;53.866;30.298;2023-02-12T20:46:15;1034.8;;;-1.4;52.9
57799;BME280;43626;53.866;30.298;2023-02-12T20:51:29;1034.8;;;-1.4;53.4
57799;BME280;43626;53.866;30.298;2023-02-12T20:56:53;1034.7;;;-1.3;53.8
57799;BME280;43626;53.866;30.298;2023-02-12T21:01:26;1034.6;;;-1.3;53.9
57799;BME280;43626;53.866;30.298;2023-02-12T21:06:23;1034.5;;;-1.2;54.1
57799;BME280;43626;53.866;30.298;2023-02-12T21:11:16;1034.5;;;-1.1;54.2
57799;BME280;43626;53.866;30.298;2023-02-12T21:16:54;1034.4;;;-1.1;54.3
57799;BME280;43626;53.866;30.298;2023-02-12T21:22:03;1034.3;;;-1.1;54.4
57799;BME280;43626;53.866;30.298;2023-02-12T21:26:39;1034.3;;;-1;54.4
57799;BME280;43626;53.866;30.298;2023-02-12T21:32:01;1034.2;;;-1;54.4
57799;BME280;43626;53.866;30.298;2023-02-12T21:36:42;1034.1;;;-1;54.5
57799;BME280;43626;53.866;30.298;2023-02-12T21:41:51;1034;;;-1;54.7
57799;BME280;43626;53.866;30.298;2023-02-12T21:46:29;1034;;;-1;55.1
57799;BME280;43626;53.866;30.298;2023-02-12T21:51:16;1033.9;;;-1.1;55.4
57799;BME280;43626;53.866;30.298;2023-02-12T21:56:29;1033.9;;;-1.1;55.7
57799;BME280;43626;53.866;30.298;2023-02-12T22:02:03;1033.9;;;-1.1;56
57799;BME280;43626;53.866;30.298;2023-02-12T22:06:51;1033.8;;;-1.1;56.2
57799;BME280;43626;53.866;30.298;2023-02-12T22:12:03;1033.8;;;-1.1;56.2
57799;BME280;43626;53.866;30.298;2023-02-12T22:17:03;1033.9;;;-1.1;56.2
57799;BME280;43626;53.866;30.298;2023-02-12T22:21:51;1033.8;;;-1.1;56.3
57799;BME280;43626;53.866;30.298;2023-02-12T22:26:53;1033.8;;;-1;56.3
57799;BME280;43626;53.866;30.298;2023-02-12T22:31:25;1033.7;;;-1;56.4
57799;BME280;43626;53.866;30.298;2023-02-12T22:36:37;1033.6;;;-1;56.4
57799;BME280;43626;53.866;30.298;2023-02-12T22:41:29;1033.6;;;-0.9;56.9
57799;BME280;43626;53.866;30.298;2023-02-12T22:46:51;1033.5;;;-0.9;57.2
57799;BME280;43626;53.866;30.298;2023-02-12T22:51:17;1033.4;;;-0.9;57.2
57799;BME280;43626;53.866;30.298;2023-02-12T22:57:03;1033.4;;;-0.8;57.4
57799;BME280;43626;53.866;30.298;2023-02-12T23:01:41;1033.3;;;-0.8;57.3
57799;BME280;43626;53.866;30.298;2023-02-12T23:07:03;1033.2;;;-0.7;57.5
57799;BME280;43626;53.866;30.298;2023-02-12T23:11:53;1033.1;;;-0.7;57.3
57799;BME280;43626;53.866;30.298;2023-02-12T23:16:51;1033;;;-0.7;57.4
57799;BME280;43626;53.866;30.298;2023-02-12T23:21:41;1032.8;;;-0.6;57.4
57799;BME280;43626;53.866;30.298;2023-02-12T23:26:29;1032.8;;;-0.6;57.5
57799;BME280;43626;53.866;30.298;2023-02-12T23:31:47;1032.9;;;-0.6;57.5
57799;BME280;43626;53.866;30.298;2023-02-12T23:36:15;1032.8;;;-0.6;57.7
57799;BME280;43626;53.866;30.298;2023-02-12T23:41:49;1032.8;;;-0.6;58.1
57799;BME280;43626;53.866;30.298;2023-02-12T23:46:41;1032.8;;;-0.6;58.3
57799;BME280;43626;53.866;30.298;2023-02-12T23:52:03;1032.7;;;-0.6;58.3
57799;BME280;43626;53.866;30.298;2023-02-12T23:56:41;1032.5;;;-0.6;58.5
